Time;durP1;ratioP1;P1;durP2;ratioP2;P2;SDS_P1;SDS_P2;PMS_P1;PMS_P2;Temp;Humidity;BMP_temperature;BMP_pressure;BME280_temperature;BME280_humidity;BME280_pressure;Samples;Min_cycle;Max_cycle;Signal;HPM_P1;HPM_P2
2022/11/27 00:00:06;;;;;;;;;;;6.30;99.90;;;;;;5073904;28;19912;-83
2022/11/27 00:02:32;;;;;;;;;;;6.20;99.90;;;;;;5074971;28;20049;-83
2022/11/27 00:04:57;;;;;;;;;;;6.20;99.90;;;;;;5075144;28;19909;-82
2022/11/27 00:07:23;;;;;;;;;;;6.20;99.90;;;;;;5074987;28;20007;-83
2022/11/27 00:09:48;;;;;;;;;;;6.20;99.90;;;;;;5075133;28;20453;-83
2022/11/27 00:12:14;;;;;;;;;;;6.20;99.90;;;;;;5074818;28;19999;-83
2022/11/27 00:14:39;;;;;;;;;;;6.20;99.90;;;;;;5075057;28;20004;-82
2022/11/27 00:17:04;;;;;;;;;;;6.20;99.90;;;;;;5073642;28;20453;-83
2022/11/27 00:19:30;;;;;;;;;;;6.20;99.90;;;;;;5075160;28;19918;-83
2022/11/27 00:21:55;;;;;;;;;;;6.30;99.90;;;;;;5074603;28;20003;-82
2022/11/27 00:24:21;;;;;;;;;;;6.20;99.90;;;;;;5073562;28;20428;-83
2022/11/27 00:26:48;;;;;;;;;;;6.20;99.90;;;;;;5073172;28;19917;-82
2022/11/27 00:29:14;;;;;;;;;;;6.30;99.90;;;;;;5074646;28;19951;-83
2022/11/27 00:31:39;;;;;;;;;;;6.30;99.90;;;;;;5074402;28;19912;-83
2022/11/27 00:34:05;;;;;;;;;;;6.30;99.90;;;;;;5073280;28;19912;-83
2022/11/27 00:36:32;;;;;;;;;;;6.20;99.90;;;;;;5073082;28;20293;-83
2022/11/27 00:38:57;;;;;;;;;;;6.20;99.90;;;;;;5073363;28;19915;-83
2022/11/27 00:41:24;;;;;;;;;;;6.30;99.90;;;;;;5073061;28;19979;-82
2022/11/27 00:43:50;;;;;;;;;;;6.30;99.90;;;;;;5074555;28;19912;-83
2022/11/27 00:46:16;;;;;;;;;;;6.20;99.90;;;;;;5074241;28;20336;-82
2022/11/27 00:48:42;;;;;;;;;;;6.30;99.90;;;;;;5073215;28;20454;-82
2022/11/27 00:51:08;;;;;;;;;;;6.30;99.90;;;;;;5073980;28;19908;-83
2022/11/27 00:53:34;;;;;;;;;;;6.30;99.90;;;;;;5074553;28;19909;-83
2022/11/27 00:56:00;;;;;;;;;;;6.30;99.90;;;;;;5073134;28;20711;-83
2022/11/27 00:58:26;;;;;;;;;;;6.20;99.90;;;;;;5072949;28;20381;-82
2022/11/27 01:00:56;;;;;;;;;;;6.20;99.90;;;;;;5072500;28;19909;-82
2022/11/27 01:03:21;;;;;;;;;;;6.20;99.90;;;;;;5072564;28;20365;-83
2022/11/27 01:05:47;;;;;;;;;;;6.20;99.90;;;;;;5072516;28;19912;-82
2022/11/27 01:08:12;;;;;;;;;;;6.20;99.90;;;;;;5072419;28;19913;-83
2022/11/27 01:10:38;;;;;;;;;;;6.30;99.90;;;;;;5073740;28;19909;-82
2022/11/27 01:13:03;;;;;;;;;;;6.30;99.90;;;;;;5072337;28;19908;-82
2022/11/27 01:15:29;;;;;;;;;;;6.20;99.90;;;;;;5073882;28;20380;-83
2022/11/27 01:17:54;;;;;;;;;;;6.30;99.90;;;;;;5072331;28;19915;-82
2022/11/27 01:20:19;;;;;;;;;;;6.30;99.90;;;;;;5072380;28;19934;-82
2022/11/27 01:22:45;;;;;;;;;;;6.30;99.90;;;;;;5072152;28;20350;-83
2022/11/27 01:25:10;;;;;;;;;;;6.30;99.90;;;;;;5072586;28;19915;-83
2022/11/27 01:27:36;;;;;;;;;;;6.30;99.90;;;;;;5072236;28;19912;-82
2022/11/27 01:30:01;;;;;;;;;;;6.30;99.90;;;;;;5073590;28;20278;-83
2022/11/27 01:32:27;;;;;;;;;;;6.30;99.90;;;;;;5073723;28;19958;-83
2022/11/27 01:34:52;;;;;;;;;;;6.30;99.90;;;;;;5074001;28;19940;-83
2022/11/27 01:37:18;;;;;;;;;;;6.40;99.90;;;;;;5073814;28;19934;-83
2022/11/27 01:39:44;;;;;;;;;;;6.40;99.90;;;;;;5072967;28;19909;-83
2022/11/27 01:42:09;;;;;;;;;;;6.30;99.90;;;;;;5072352;28;19971;-83
2022/11/27 01:44:35;;;;;;;;;;;6.40;99.90;;;;;;5072621;28;20033;-83
2022/11/27 01:47:02;;;;;;;;;;;6.30;99.90;;;;;;5072032;28;19923;-83
2022/11/27 01:49:27;;;;;;;;;;;6.30;99.90;;;;;;5072331;28;20512;-83
2022/11/27 01:52:05;;;;;;;;;;;6.30;99.90;;;;;;5071989;28;19908;-83
2022/11/27 01:54:32;;;;;;;;;;;6.30;99.90;;;;;;5072079;28;19924;-83
2022/11/27 01:56:59;;;;;;;;;;;6.30;99.90;;;;;;5071878;28;19951;-83
2022/11/27 01:59:25;;;;;;;;;;;6.30;99.90;;;;;;5071900;28;19995;-83
2022/11/27 02:01:50;;;;;;;;;;;6.30;99.90;;;;;;5072856;28;19944;-83
2022/11/27 02:04:16;;;;;;;;;;;6.30;99.90;;;;;;5071869;28;19915;-82
2022/11/27 02:06:42;;;;;;;;;;;6.30;99.90;;;;;;5072981;28;19974;-83
2022/11/27 02:09:07;;;;;;;;;;;6.30;99.90;;;;;;5071983;28;19913;-83
2022/11/27 02:11:40;;;;;;;;;;;6.20;99.90;;;;;;5072737;28;19915;-82
2022/11/27 02:14:12;;;;;;;;;;;6.20;99.90;;;;;;5071822;28;19923;-83
2022/11/27 02:16:49;;;;;;;;;;;6.20;99.90;;;;;;5073241;28;20377;-83
2022/11/27 02:19:24;;;;;;;;;;;6.20;99.90;;;;;;5073168;28;19904;-83
2022/11/27 02:21:55;;;;;;;;;;;6.10;99.90;;;;;;5071553;28;20281;-83
2022/11/27 02:24:39;;;;;;;;;;;6.10;99.90;;;;;;5071530;28;19913;-82
2022/11/27 02:27:26;;;;;;;;;;;6.10;99.90;;;;;;5072502;28;20003;-82
2022/11/27 02:29:55;;;;;;;;;;;6.10;99.90;;;;;;5072840;28;19924;-83
2022/11/27 02:32:27;;;;;;;;;;;6.00;99.90;;;;;;5071120;28;20262;-83
2022/11/27 02:34:52;;;;;;;;;;;6.10;99.90;;;;;;5072688;28;19958;-82
2022/11/27 02:37:37;;;;;;;;;;;6.10;99.90;;;;;;5072511;28;19908;-83
2022/11/27 02:40:08;;;;;;;;;;;6.00;99.90;;;;;;5072628;28;19908;-83
2022/11/27 02:42:39;;;;;;;;;;;6.00;99.90;;;;;;5070993;28;19985;-83
2022/11/27 02:45:11;;;;;;;;;;;6.00;99.90;;;;;;5072527;28;19958;-83
2022/11/27 02:47:38;;;;;;;;;;;6.00;99.90;;;;;;5072247;28;19923;-83
2022/11/27 02:50:06;;;;;;;;;;;6.00;99.90;;;;;;5072672;28;19913;-82
2022/11/27 02:52:31;;;;;;;;;;;6.00;99.90;;;;;;5070751;28;19915;-82
2022/11/27 02:54:59;;;;;;;;;;;5.90;99.90;;;;;;5072569;28;19908;-82
2022/11/27 02:57:26;;;;;;;;;;;5.90;99.90;;;;;;5072526;28;19990;-82
2022/11/27 02:59:54;;;;;;;;;;;5.90;99.90;;;;;;5072494;28;19908;-83
2022/11/27 03:02:22;;;;;;;;;;;6.00;99.90;;;;;;5072555;28;20445;-83
2022/11/27 03:04:50;;;;;;;;;;;6.00;99.90;;;;;;5071383;28;19956;-83
2022/11/27 03:07:20;;;;;;;;;;;6.00;99.90;;;;;;5070831;28;19919;-82
2022/11/27 03:09:48;;;;;;;;;;;6.00;99.90;;;;;;5072527;28;20404;-82
2022/11/27 03:12:15;;;;;;;;;;;6.00;99.90;;;;;;5070741;28;20054;-83
2022/11/27 03:14:41;;;;;;;;;;;6.00;99.90;;;;;;5071739;28;19912;-83
2022/11/27 03:17:20;;;;;;;;;;;6.00;99.90;;;;;;5071965;28;19959;-83
2022/11/27 03:19:52;;;;;;;;;;;6.00;99.90;;;;;;5072110;28;19909;-83
2022/11/27 03:22:17;;;;;;;;;;;6.00;99.90;;;;;;5071683;28;19915;-82
2022/11/27 03:24:43;;;;;;;;;;;6.00;99.90;;;;;;5074772;28;19908;-83
2022/11/27 03:27:10;;;;;;;;;;;6.00;99.90;;;;;;5077256;28;20013;-83
2022/11/27 03:29:40;;;;;;;;;;;6.00;99.90;;;;;;5076217;28;19909;-82
2022/11/27 03:32:05;;;;;;;;;;;6.00;99.90;;;;;;5076681;28;19931;-83
2022/11/27 03:34:31;;;;;;;;;;;6.10;99.90;;;;;;5076462;28;19908;-83
2022/11/27 03:36:57;;;;;;;;;;;6.10;99.90;;;;;;5075613;28;19918;-83
2022/11/27 03:39:23;;;;;;;;;;;6.10;99.90;;;;;;5075786;28;19909;-83
2022/11/27 03:41:57;;;;;;;;;;;6.20;99.90;;;;;;5075929;28;19992;-83
2022/11/27 03:44:29;;;;;;;;;;;6.20;99.90;;;;;;5076571;28;19916;-83
2022/11/27 03:47:04;;;;;;;;;;;6.20;99.90;;;;;;5077002;28;19999;-83
2022/11/27 03:49:38;;;;;;;;;;;6.30;99.90;;;;;;5075350;28;20457;-83
2022/11/27 03:52:33;;;;;;;;;;;6.30;99.90;;;;;;5075387;28;20286;-83
2022/11/27 03:55:12;;;;;;;;;;;6.40;99.90;;;;;;5071788;28;19912;-84
2022/11/27 03:57:38;;;;;;;;;;;6.40;99.90;;;;;;5075269;28;19952;-83
2022/11/27 04:00:05;;;;;;;;;;;6.40;99.90;;;;;;5075108;28;19916;-83
2022/11/27 04:02:39;;;;;;;;;;;6.40;99.90;;;;;;5076773;28;20429;-83
2022/11/27 04:05:04;;;;;;;;;;;6.40;99.90;;;;;;5076345;28;19960;-83
2022/11/27 04:07:30;;;;;;;;;;;6.50;99.90;;;;;;5076595;28;19920;-83
2022/11/27 04:09:55;;;;;;;;;;;6.50;99.90;;;;;;5076188;28;19909;-83
2022/11/27 04:12:21;;;;;;;;;;;6.50;99.90;;;;;;5075541;28;19936;-83
2022/11/27 04:14:46;;;;;;;;;;;6.40;99.90;;;;;;5076732;28;19909;-83
2022/11/27 04:17:11;;;;;;;;;;;6.50;99.90;;;;;;5074389;28;19909;-83
2022/11/27 04:19:37;;;;;;;;;;;6.50;99.90;;;;;;5074760;28;19913;-83
2022/11/27 04:22:02;;;;;;;;;;;6.50;99.90;;;;;;5073926;28;19915;-83
2022/11/27 04:24:28;;;;;;;;;;;6.50;99.90;;;;;;5074448;28;20354;-83
2022/11/27 04:26:53;;;;;;;;;;;6.50;99.90;;;;;;5074616;28;19916;-83
2022/11/27 04:29:19;;;;;;;;;;;6.50;99.90;;;;;;5074400;28;19912;-83
2022/11/27 04:31:44;;;;;;;;;;;6.40;99.90;;;;;;5074084;28;20366;-83
2022/11/27 04:34:10;;;;;;;;;;;6.40;99.90;;;;;;5074468;28;20009;-83
2022/11/27 04:36:35;;;;;;;;;;;6.40;99.90;;;;;;5075652;28;19915;-83
2022/11/27 04:39:00;;;;;;;;;;;6.40;99.90;;;;;;5075235;28;20322;-83
2022/11/27 04:41:28;;;;;;;;;;;6.50;99.90;;;;;;5073804;28;19908;-82
2022/11/27 04:43:53;;;;;;;;;;;6.50;99.90;;;;;;5075407;28;19940;-83
2022/11/27 04:48:53;;;;;;;;;;;6.50;99.90;;;;;;5055039;28;19939;-84
2022/11/27 04:51:18;;;;;;;;;;;6.40;99.90;;;;;;5071904;28;19908;-84
2022/11/27 04:53:44;;;;;;;;;;;6.40;99.90;;;;;;5038931;28;19985;-83
2022/11/27 04:56:09;;;;;;;;;;;6.40;99.90;;;;;;5039155;28;20340;-83
2022/11/27 04:58:35;;;;;;;;;;;6.40;99.90;;;;;;5071697;28;19909;-84
2022/11/27 05:01:00;;;;;;;;;;;6.40;99.90;;;;;;5038805;28;20372;-84
2022/11/27 05:03:25;;;;;;;;;;;6.40;99.90;;;;;;5038194;28;19913;-84
2022/11/27 05:05:55;;;;;;;;;;;6.40;99.90;;;;;;5056852;28;19971;-83
2022/11/27 05:08:20;;;;;;;;;;;6.40;99.90;;;;;;5056227;28;19909;-84
2022/11/27 05:10:46;;;;;;;;;;;6.40;99.90;;;;;;5038186;28;20003;-84
2022/11/27 05:13:12;;;;;;;;;;;6.50;99.90;;;;;;5038529;28;20366;-83
2022/11/27 05:15:37;;;;;;;;;;;6.40;99.90;;;;;;5038941;28;19913;-84
2022/11/27 05:18:03;;;;;;;;;;;6.50;99.90;;;;;;5038845;28;19999;-85
2022/11/27 05:20:28;;;;;;;;;;;6.50;99.90;;;;;;5039608;28;19909;-84
2022/11/27 05:22:54;;;;;;;;;;;6.40;99.90;;;;;;5039108;28;19909;-83
2022/11/27 05:25:19;;;;;;;;;;;6.50;99.90;;;;;;5057460;28;19950;-83
2022/11/27 05:27:45;;;;;;;;;;;6.60;99.90;;;;;;5039096;28;19913;-85
2022/11/27 05:30:10;;;;;;;;;;;6.60;99.90;;;;;;5039091;28;20408;-84
2022/11/27 05:32:36;;;;;;;;;;;6.60;99.90;;;;;;5039293;28;19931;-83
2022/11/27 05:35:02;;;;;;;;;;;6.60;99.90;;;;;;5039075;28;19909;-85
2022/11/27 05:37:27;;;;;;;;;;;6.70;99.90;;;;;;5038845;28;20366;-84
2022/11/27 05:39:53;;;;;;;;;;;6.60;99.90;;;;;;5039798;28;19916;-85
2022/11/27 05:42:18;;;;;;;;;;;6.70;99.90;;;;;;5057161;28;20277;-85
2022/11/27 05:44:44;;;;;;;;;;;6.70;99.90;;;;;;5057115;28;19916;-84
2022/11/27 05:47:09;;;;;;;;;;;6.70;99.90;;;;;;5038205;28;20377;-84
2022/11/27 05:49:35;;;;;;;;;;;6.60;99.90;;;;;;5038796;28;19909;-85
2022/11/27 05:52:01;;;;;;;;;;;6.60;99.90;;;;;;5057224;28;20390;-85
2022/11/27 05:54:26;;;;;;;;;;;6.60;99.90;;;;;;5057101;28;19913;-85
2022/11/27 05:56:51;;;;;;;;;;;6.60;99.90;;;;;;5038864;28;19958;-85
2022/11/27 05:59:17;;;;;;;;;;;6.60;99.90;;;;;;5037754;28;19923;-84
2022/11/27 06:01:43;;;;;;;;;;;6.60;99.90;;;;;;5038697;28;19963;-84
2022/11/27 06:04:08;;;;;;;;;;;6.60;99.90;;;;;;5038306;28;19924;-84
2022/11/27 06:06:33;;;;;;;;;;;6.60;99.90;;;;;;5037424;28;20497;-84
2022/11/27 06:08:59;;;;;;;;;;;6.60;99.90;;;;;;5038035;28;19915;-84
2022/11/27 06:11:24;;;;;;;;;;;6.60;99.90;;;;;;5037601;28;20046;-84
2022/11/27 06:13:50;;;;;;;;;;;6.60;99.90;;;;;;5056157;28;19909;-84
2022/11/27 06:16:19;;;;;;;;;;;6.60;99.90;;;;;;5038068;28;19912;-84
2022/11/27 06:18:44;;;;;;;;;;;6.60;99.90;;;;;;5055373;28;19913;-84
2022/11/27 06:21:12;;;;;;;;;;;6.70;99.90;;;;;;5037598;28;19915;-83
2022/11/27 06:23:37;;;;;;;;;;;6.70;99.90;;;;;;5037385;28;19909;-83
2022/11/27 06:26:09;;;;;;;;;;;6.70;99.90;;;;;;5054751;28;19913;-85
2022/11/27 06:28:35;;;;;;;;;;;6.80;99.90;;;;;;5037249;28;19908;-83
2022/11/27 06:31:03;;;;;;;;;;;6.80;99.90;;;;;;5054970;28;19915;-84
2022/11/27 06:33:29;;;;;;;;;;;6.80;99.90;;;;;;5037270;28;19909;-84
2022/11/27 06:35:54;;;;;;;;;;;6.80;99.90;;;;;;5037106;28;19954;-84
2022/11/27 06:38:20;;;;;;;;;;;6.90;99.90;;;;;;5037014;28;19916;-83
2022/11/27 06:40:45;;;;;;;;;;;6.90;99.90;;;;;;5055151;28;19988;-85
2022/11/27 06:43:11;;;;;;;;;;;6.90;99.90;;;;;;5037470;28;20380;-84
2022/11/27 06:45:36;;;;;;;;;;;6.80;99.90;;;;;;5037043;28;19909;-85
2022/11/27 06:48:02;;;;;;;;;;;6.80;99.90;;;;;;5055134;28;19920;-83
2022/11/27 06:50:27;;;;;;;;;;;6.80;99.90;;;;;;5054942;28;20437;-85
2022/11/27 06:52:52;;;;;;;;;;;6.80;99.90;;;;;;5036057;28;19908;-84
2022/11/27 06:55:18;;;;;;;;;;;6.80;99.90;;;;;;5037773;28;19909;-84
2022/11/27 06:57:43;;;;;;;;;;;6.90;99.90;;;;;;5037671;28;19909;-83
2022/11/27 07:00:09;;;;;;;;;;;6.80;99.90;;;;;;5040740;28;20302;-84
2022/11/27 07:02:35;;;;;;;;;;;6.90;99.90;;;;;;5041023;28;19916;-83
2022/11/27 07:05:00;;;;;;;;;;;6.90;99.90;;;;;;5059075;28;20285;-83
2022/11/27 07:07:25;;;;;;;;;;;6.90;99.90;;;;;;5041352;28;19914;-84
2022/11/27 07:09:51;;;;;;;;;;;6.90;99.90;;;;;;5040744;28;19932;-82
2022/11/27 07:12:16;;;;;;;;;;;6.90;99.90;;;;;;5040618;28;19952;-84
2022/11/27 07:14:42;;;;;;;;;;;7.00;99.90;;;;;;5059101;28;19927;-84
2022/11/27 07:17:07;;;;;;;;;;;7.00;99.90;;;;;;5040715;28;20346;-83
2022/11/27 07:19:33;;;;;;;;;;;7.00;99.90;;;;;;5040085;28;19959;-84
2022/11/27 07:21:58;;;;;;;;;;;7.00;99.90;;;;;;5040197;28;19971;-85
2022/11/27 07:24:24;;;;;;;;;;;7.00;99.90;;;;;;5059234;28;19916;-85
2022/11/27 07:26:49;;;;;;;;;;;7.00;99.90;;;;;;5058707;28;19920;-84
2022/11/27 07:29:14;;;;;;;;;;;7.00;99.90;;;;;;5058430;28;19954;-85
2022/11/27 07:31:40;;;;;;;;;;;7.10;99.90;;;;;;5040424;28;19909;-85
2022/11/27 07:34:05;;;;;;;;;;;7.10;99.90;;;;;;5058010;28;20251;-84
2022/11/27 07:36:31;;;;;;;;;;;7.10;99.90;;;;;;5040428;28;19909;-85
2022/11/27 07:38:57;;;;;;;;;;;7.10;99.90;;;;;;5040226;28;19964;-83
2022/11/27 07:41:23;;;;;;;;;;;7.10;99.90;;;;;;5058757;28;19909;-84
2022/11/27 07:43:48;;;;;;;;;;;7.20;99.90;;;;;;5040004;28;19915;-84
2022/11/27 07:46:15;;;;;;;;;;;7.20;99.90;;;;;;5040403;28;20359;-83
2022/11/27 07:48:41;;;;;;;;;;;7.20;99.90;;;;;;5039867;28;20271;-83
2022/11/27 07:51:11;;;;;;;;;;;7.30;99.90;;;;;;5060489;28;19931;-85
2022/11/27 07:53:37;;;;;;;;;;;7.40;99.90;;;;;;5041910;28;19912;-84
2022/11/27 07:56:03;;;;;;;;;;;7.40;99.90;;;;;;5040544;28;20040;-84
2022/11/27 07:58:28;;;;;;;;;;;7.40;99.90;;;;;;5058503;28;19909;-84
2022/11/27 08:00:55;;;;;;;;;;;7.40;99.90;;;;;;5040381;28;19928;-85
2022/11/27 08:03:20;;;;;;;;;;;7.50;99.90;;;;;;5058228;28;20371;-84
2022/11/27 08:05:46;;;;;;;;;;;7.60;99.90;;;;;;5039628;28;20004;-84
2022/11/27 08:08:11;;;;;;;;;;;7.60;99.90;;;;;;5039996;28;20359;-85
2022/11/27 08:10:37;;;;;;;;;;;7.70;99.90;;;;;;5038771;28;20011;-84
2022/11/27 08:13:03;;;;;;;;;;;7.60;99.90;;;;;;5057881;28;20362;-84
2022/11/27 08:15:28;;;;;;;;;;;7.70;99.90;;;;;;5039270;28;19959;-84
2022/11/27 08:17:54;;;;;;;;;;;7.70;99.90;;;;;;5039195;28;19909;-84
2022/11/27 08:20:19;;;;;;;;;;;7.80;99.90;;;;;;5057544;28;19909;-85
2022/11/27 08:22:45;;;;;;;;;;;7.80;99.90;;;;;;5056433;28;19930;-85
2022/11/27 08:25:10;;;;;;;;;;;7.80;99.90;;;;;;5039396;28;19915;-85
2022/11/27 08:27:36;;;;;;;;;;;7.90;99.90;;;;;;5056557;28;20362;-84
2022/11/27 08:30:02;;;;;;;;;;;7.90;99.90;;;;;;5038794;28;19955;-84
2022/11/27 08:32:27;;;;;;;;;;;7.90;99.90;;;;;;5038848;28;20335;-84
2022/11/27 08:34:53;;;;;;;;;;;8.10;99.90;;;;;;5038691;28;19909;-84
2022/11/27 08:37:18;;;;;;;;;;;8.10;99.90;;;;;;5039050;28;19962;-84
2022/11/27 08:39:44;;;;;;;;;;;8.30;99.90;;;;;;5057449;28;19963;-83
2022/11/27 08:42:09;;;;;;;;;;;8.40;99.90;;;;;;5038954;28;19909;-84
2022/11/27 08:44:35;;;;;;;;;;;8.50;99.90;;;;;;5039615;28;20011;-85
2022/11/27 08:47:00;;;;;;;;;;;8.70;99.90;;;;;;5039055;28;19984;-84
2022/11/27 08:49:26;;;;;;;;;;;8.70;99.90;;;;;;5038660;28;19909;-85
2022/11/27 08:51:51;;;;;;;;;;;8.80;99.90;;;;;;5040150;28;19909;-84
2022/11/27 08:54:17;;;;;;;;;;;8.70;99.90;;;;;;5039336;28;19917;-85
2022/11/27 08:56:42;;;;;;;;;;;8.50;99.90;;;;;;5038940;28;20366;-84
2022/11/27 08:59:08;;;;;;;;;;;8.50;99.90;;;;;;5037514;28;19916;-84
2022/11/27 09:01:33;;;;;;;;;;;8.50;99.90;;;;;;5037385;28;20008;-84
2022/11/27 09:03:59;;;;;;;;;;;8.50;99.90;;;;;;5037727;28;19935;-85
2022/11/27 09:06:27;;;;;;;;;;;8.50;99.90;;;;;;5038284;28;20370;-85
2022/11/27 09:08:54;;;;;;;;;;;8.60;99.90;;;;;;5038236;28;19909;-85
2022/11/27 09:11:20;;;;;;;;;;;8.50;99.90;;;;;;5055224;28;19909;-84
2022/11/27 09:13:45;;;;;;;;;;;8.60;99.90;;;;;;5037597;28;19909;-84
2022/11/27 09:16:12;;;;;;;;;;;8.60;99.90;;;;;;5055611;28;19996;-83
2022/11/27 09:18:38;;;;;;;;;;;8.70;99.90;;;;;;5038055;28;19928;-84
2022/11/27 09:21:05;;;;;;;;;;;8.80;99.90;;;;;;5038363;28;19912;-84
2022/11/27 09:23:30;;;;;;;;;;;8.80;99.90;;;;;;5038380;28;19916;-85
2022/11/27 09:26:00;;;;;;;;;;;8.90;99.90;;;;;;5041070;28;19908;-84
2022/11/27 09:28:25;;;;;;;;;;;9.00;99.90;;;;;;5039693;28;19909;-85
2022/11/27 09:30:55;;;;;;;;;;;9.20;99.90;;;;;;5038648;28;20396;-84
2022/11/27 09:33:21;;;;;;;;;;;9.20;99.90;;;;;;5058298;28;19919;-84
2022/11/27 09:35:50;;;;;;;;;;;9.40;99.90;;;;;;5039507;28;19967;-86
2022/11/27 09:38:16;;;;;;;;;;;9.50;99.90;;;;;;5040945;28;19908;-85
2022/11/27 09:40:59;;;;;;;;;;;9.70;99.90;;;;;;5039440;28;19962;-82
2022/11/27 09:43:28;;;;;;;;;;;9.80;99.90;;;;;;5037988;28;19915;-82
2022/11/27 09:45:56;;;;;;;;;;;10.00;99.90;;;;;;5056455;28;19908;-83
2022/11/27 09:48:32;;;;;;;;;;;10.00;99.90;;;;;;5037905;28;20286;-82
2022/11/27 09:51:00;;;;;;;;;;;10.00;99.90;;;;;;5056629;28;19963;-83
2022/11/27 09:53:29;;;;;;;;;;;10.10;99.90;;;;;;5037667;28;19909;-82
2022/11/27 09:55:57;;;;;;;;;;;10.10;99.90;;;;;;5038243;28;20282;-83
2022/11/27 09:58:35;;;;;;;;;;;10.10;99.90;;;;;;5038587;28;19932;-82
2022/11/27 10:01:08;;;;;;;;;;;10.00;99.90;;;;;;5037526;28;19909;-82
2022/11/27 10:03:33;;;;;;;;;;;9.90;99.90;;;;;;5038954;28;19909;-83
2022/11/27 10:06:10;;;;;;;;;;;10.00;99.90;;;;;;5055785;28;19915;-82
2022/11/27 10:08:43;;;;;;;;;;;9.90;99.90;;;;;;5056858;28;19972;-82
2022/11/27 10:11:25;;;;;;;;;;;9.80;99.90;;;;;;5038269;28;19916;-82
2022/11/27 10:13:58;;;;;;;;;;;9.70;99.90;;;;;;5056622;28;19983;-83
2022/11/27 10:16:23;;;;;;;;;;;9.80;99.90;;;;;;5038827;28;19908;-83
2022/11/27 10:18:52;;;;;;;;;;;9.80;99.90;;;;;;5039260;28;19924;-83
2022/11/27 10:21:37;;;;;;;;;;;9.80;99.90;;;;;;5057969;28;19909;-82
2022/11/27 10:24:25;;;;;;;;;;;9.80;99.90;;;;;;5057774;28;20269;-83
2022/11/27 10:26:53;;;;;;;;;;;9.80;99.90;;;;;;5028864;28;19931;-83
2022/11/27 10:29:48;;;;;;;;;;;9.70;99.90;;;;;;5039548;28;19955;-83
2022/11/27 10:32:15;;;;;;;;;;;9.60;99.90;;;;;;5050906;28;19999;-82
2022/11/27 10:34:45;;;;;;;;;;;9.60;99.90;;;;;;5054920;28;20312;-82
2022/11/27 10:37:11;;;;;;;;;;;9.70;99.90;;;;;;5055601;28;19916;-83
2022/11/27 10:39:40;;;;;;;;;;;9.70;99.90;;;;;;5041245;28;20386;-83
2022/11/27 10:42:13;;;;;;;;;;;9.80;99.90;;;;;;5040519;28;20286;-83
2022/11/27 10:44:41;;;;;;;;;;;9.80;99.90;;;;;;5040533;28;20043;-82
2022/11/27 10:47:09;;;;;;;;;;;9.80;99.90;;;;;;5056016;22;19921;-81
2022/11/27 10:49:38;;;;;;;;;;;9.70;99.90;;;;;;5073081;28;19917;-82
2022/11/27 10:52:03;;;;;;;;;;;9.80;99.90;;;;;;5055896;28;19909;-82
2022/11/27 10:54:31;;;;;;;;;;;9.80;99.90;;;;;;5055504;28;19909;-82
2022/11/27 10:57:15;;;;;;;;;;;9.80;99.90;;;;;;5056454;28;20374;-82
2022/11/27 10:59:46;;;;;;;;;;;9.80;99.90;;;;;;5057499;28;19943;-82
2022/11/27 11:02:28;;;;;;;;;;;9.80;99.90;;;;;;5054732;28;19986;-82
2022/11/27 11:04:53;;;;;;;;;;;9.90;99.90;;;;;;5073119;28;19912;-82
2022/11/27 11:07:26;;;;;;;;;;;9.90;99.90;;;;;;5072643;28;19926;-81
2022/11/27 11:09:53;;;;;;;;;;;10.00;99.90;;;;;;5055355;28;20292;-82
2022/11/27 11:12:20;;;;;;;;;;;10.00;99.90;;;;;;5054881;28;19962;-82
2022/11/27 11:14:57;;;;;;;;;;;10.10;99.90;;;;;;5055198;28;20413;-82
2022/11/27 11:17:27;;;;;;;;;;;10.30;99.90;;;;;;5054772;28;19909;-82
2022/11/27 11:19:53;;;;;;;;;;;10.40;99.90;;;;;;5055268;28;19909;-82
2022/11/27 11:22:18;;;;;;;;;;;10.30;99.90;;;;;;5072711;28;20002;-82
2022/11/27 11:24:51;;;;;;;;;;;10.30;99.90;;;;;;5072502;28;19916;-82
2022/11/27 11:27:16;;;;;;;;;;;10.30;99.90;;;;;;5054136;28;19919;-83
2022/11/27 11:29:44;;;;;;;;;;;10.30;99.90;;;;;;5072384;28;19909;-82
2022/11/27 11:32:13;;;;;;;;;;;10.30;99.90;;;;;;5072926;28;20390;-82
2022/11/27 11:34:42;;;;;;;;;;;10.40;99.90;;;;;;5054688;28;19990;-82
2022/11/27 11:37:19;;;;;;;;;;;10.40;99.90;;;;;;5054117;28;19982;-82
2022/11/27 11:39:47;;;;;;;;;;;10.30;99.90;;;;;;5054483;28;20362;-82
2022/11/27 11:42:19;;;;;;;;;;;10.30;99.90;;;;;;5054681;28;19916;-82
2022/11/27 11:44:49;;;;;;;;;;;10.30;99.90;;;;;;5072636;28;19908;-82
2022/11/27 11:47:18;;;;;;;;;;;10.40;99.90;;;;;;5057519;28;20011;-83
2022/11/27 11:49:44;;;;;;;;;;;10.40;99.90;;;;;;5057984;28;19908;-82
2022/11/27 11:52:28;;;;;;;;;;;10.30;99.90;;;;;;5058414;28;19999;-82
2022/11/27 11:55:12;;;;;;;;;;;10.30;99.90;;;;;;5058886;28;19908;-82
2022/11/27 11:57:38;;;;;;;;;;;10.30;99.90;;;;;;5076284;28;20346;-82
2022/11/27 12:00:06;;;;;;;;;;;10.40;99.90;;;;;;5058086;28;19916;-82
2022/11/27 12:02:44;;;;;;;;;;;10.40;99.90;;;;;;5057221;28;19916;-82
2022/11/27 12:05:22;;;;;;;;;;;10.50;99.90;;;;;;5075630;28;19916;-82
2022/11/27 12:07:47;;;;;;;;;;;10.60;99.90;;;;;;5075935;28;19912;-82
2022/11/27 12:10:18;;;;;;;;;;;10.80;99.90;;;;;;5083898;28;19916;-82
2022/11/27 12:12:52;;;;;;;;;;;10.90;99.90;;;;;;5078083;28;19951;-82
2022/11/27 12:15:24;;;;;;;;;;;10.80;99.90;;;;;;5076262;28;19908;-83
2022/11/27 12:17:55;;;;;;;;;;;10.90;99.90;;;;;;5058284;28;19909;-82
2022/11/27 12:20:24;;;;;;;;;;;10.80;99.90;;;;;;5075845;28;19913;-82
2022/11/27 12:23:08;;;;;;;;;;;10.70;99.90;;;;;;5075409;28;20362;-83
2022/11/27 12:25:33;;;;;;;;;;;10.70;99.90;;;;;;5075536;28;19909;-82
2022/11/27 12:27:59;;;;;;;;;;;10.80;99.90;;;;;;5057705;28;19962;-82
2022/11/27 12:30:30;;;;;;;;;;;10.80;99.90;;;;;;5057961;28;19908;-82
2022/11/27 12:33:08;;;;;;;;;;;10.70;99.90;;;;;;5075248;28;19915;-82
2022/11/27 12:35:40;;;;;;;;;;;10.80;99.90;;;;;;5057646;28;19908;-82
2022/11/27 12:38:15;;;;;;;;;;;10.80;99.90;;;;;;5075423;28;20372;-82
2022/11/27 12:40:46;;;;;;;;;;;10.90;99.90;;;;;;5075990;28;19909;-82
2022/11/27 12:43:41;;;;;;;;;;;10.90;99.90;;;;;;5075250;28;20426;-82
2022/11/27 12:46:16;;;;;;;;;;;11.00;99.90;;;;;;5044045;28;20357;-82
2022/11/27 12:48:57;;;;;;;;;;;11.00;99.90;;;;;;5057062;28;20289;-82
2022/11/27 12:51:24;;;;;;;;;;;11.00;99.90;;;;;;5056735;28;19913;-82
2022/11/27 12:54:05;;;;;;;;;;;11.00;99.90;;;;;;5075080;28;19909;-82
2022/11/27 12:56:40;;;;;;;;;;;11.10;99.90;;;;;;5074882;28;19954;-82
2022/11/27 12:59:24;;;;;;;;;;;11.10;99.90;;;;;;5074464;28;19912;-82
2022/11/27 13:01:58;;;;;;;;;;;11.10;99.90;;;;;;5074472;28;19909;-82
2022/11/27 13:04:27;;;;;;;;;;;11.10;99.90;;;;;;5074807;28;20389;-82
2022/11/27 13:07:04;;;;;;;;;;;11.10;99.90;;;;;;5056678;28;20011;-83
2022/11/27 13:09:38;;;;;;;;;;;11.10;99.90;;;;;;5056800;28;19909;-82
2022/11/27 13:12:04;;;;;;;;;;;11.10;99.90;;;;;;5056632;28;20357;-82
2022/11/27 13:14:33;;;;;;;;;;;11.20;99.90;;;;;;5075107;28;19934;-82
2022/11/27 13:17:01;;;;;;;;;;;11.20;99.90;;;;;;5057109;28;19909;-82
2022/11/27 13:19:31;;;;;;;;;;;11.20;99.90;;;;;;5056408;28;19912;-82
2022/11/27 13:21:58;;;;;;;;;;;11.30;99.90;;;;;;5056042;28;19908;-82
2022/11/27 13:24:24;;;;;;;;;;;11.30;99.90;;;;;;5055870;28;19908;-82
2022/11/27 13:26:59;;;;;;;;;;;11.30;99.90;;;;;;5074212;28;19918;-82
2022/11/27 13:29:30;;;;;;;;;;;11.30;99.90;;;;;;5074173;28;19999;-82
2022/11/27 13:31:58;;;;;;;;;;;11.20;99.90;;;;;;5074386;28;19909;-82
2022/11/27 13:34:25;;;;;;;;;;;11.20;99.90;;;;;;5057328;28;19944;-82
2022/11/27 13:37:17;;;;;;;;;;;11.20;99.90;;;;;;5056331;28;19958;-83
2022/11/27 13:39:43;;;;;;;;;;;11.20;99.90;;;;;;5052935;28;19954;-82
2022/11/27 13:42:11;;;;;;;;;;;11.20;99.90;;;;;;5073655;28;19912;-83
2022/11/27 13:44:40;;;;;;;;;;;11.20;99.90;;;;;;5073906;28;20006;-83
2022/11/27 13:47:17;;;;;;;;;;;11.30;99.90;;;;;;5055688;28;19916;-83
2022/11/27 13:49:44;;;;;;;;;;;11.20;99.90;;;;;;5073797;28;19988;-82
2022/11/27 13:52:14;;;;;;;;;;;11.10;99.90;;;;;;5056316;28;19916;-82
2022/11/27 13:54:57;;;;;;;;;;;10.90;99.90;;;;;;5056875;28;19999;-82
2022/11/27 13:57:24;;;;;;;;;;;10.70;99.90;;;;;;5059110;28;19909;-82
2022/11/27 13:59:56;;;;;;;;;;;10.60;99.90;;;;;;5059385;28;20321;-82
2022/11/27 14:02:22;;;;;;;;;;;10.60;99.90;;;;;;5055547;28;19916;-82
2022/11/27 14:04:49;;;;;;;;;;;10.40;99.90;;;;;;5073173;28;19909;-82
2022/11/27 14:07:15;;;;;;;;;;;10.20;99.90;;;;;;5072748;28;19920;-82
2022/11/27 14:09:44;;;;;;;;;;;10.00;99.90;;;;;;5054878;28;19955;-82
2022/11/27 14:12:14;;;;;;;;;;;9.90;99.90;;;;;;5055230;28;19909;-83
2022/11/27 14:14:41;;;;;;;;;;;9.80;99.90;;;;;;5074138;28;19908;-82
2022/11/27 14:17:21;;;;;;;;;;;9.70;99.90;;;;;;5074445;28;19924;-82
2022/11/27 14:19:57;;;;;;;;;;;9.60;99.90;;;;;;5056234;28;20295;-82
2022/11/27 14:22:42;;;;;;;;;;;9.50;99.90;;;;;;5055815;28;19909;-82
2022/11/27 14:25:18;;;;;;;;;;;9.40;99.90;;;;;;5073620;28;19995;-82
2022/11/27 14:27:44;;;;;;;;;;;9.40;99.90;;;;;;5072758;28;19997;-82
2022/11/27 14:30:30;;;;;;;;;;;9.30;99.90;;;;;;5055122;28;20143;-82
2022/11/27 14:32:56;;;;;;;;;;;9.30;99.90;;;;;;5055971;28;19915;-83
2022/11/27 14:35:23;;;;;;;;;;;9.30;99.90;;;;;;5055590;28;19913;-83